<?xml version="1.0" encoding="UTF-8" standalone="no" ?>
<gpx xmlns="http://www.topografix.com/GPX/1/1" xmlns:xsi="http://www.w3.org/2001/XMLSchema-instance" xsi:schemaLocation="http://www.topografix.com/GPX/1/1 http://www.topografix.com/GPX/1/1/gpx.xsd" version="1.1" creator="VisuGPX - https://www.visugpx.com">
  <metadata>
    <name>Etang de l\'Epiniere</name>
    <desc><![CDATA[Marche Nordique autour de l%u2019étang de l\'epiniere]]></desc>
  </metadata>
  <wpt lat="47.11907" lon="2.37487">
    <ele>147</ele>
  </wpt>
  <wpt lat="47.11968" lon="2.37516">
    <ele>142</ele>
  </wpt>
  <trk>
    <name><![CDATA[Etang de l\'Epiniere_1]]></name>
    <trkseg>
      <trkpt lat="47.11907" lon="2.37487">
        <ele>147</ele>
        <time>2015-09-16T06:35:39Z</time>
      </trkpt>
      <trkpt lat="47.11912" lon="2.37499">
        <ele>147</ele>
        <time>2015-09-16T06:36:49Z</time>
      </trkpt>
      <trkpt lat="47.11921" lon="2.37502">
        <ele>158</ele>
        <time>2015-09-16T06:37:26Z</time>
      </trkpt>
      <trkpt lat="47.11911" lon="2.375">
        <ele>150</ele>
        <time>2015-09-16T06:37:44Z</time>
      </trkpt>
      <trkpt lat="47.11921" lon="2.37502">
        <ele>150</ele>
        <time>2015-09-16T06:38:15Z</time>
      </trkpt>
      <trkpt lat="47.1191" lon="2.37499">
        <ele>141</ele>
        <time>2015-09-16T06:38:43Z</time>
      </trkpt>
      <trkpt lat="47.11919" lon="2.37506">
        <ele>148</ele>
        <time>2015-09-16T06:40:09Z</time>
      </trkpt>
      <trkpt lat="47.11927" lon="2.37498">
        <ele>148</ele>
        <time>2015-09-16T06:40:29Z</time>
      </trkpt>
      <trkpt lat="47.11937" lon="2.37498">
        <ele>148</ele>
        <time>2015-09-16T06:40:42Z</time>
      </trkpt>
      <trkpt lat="47.11941" lon="2.37485">
        <ele>148</ele>
        <time>2015-09-16T06:40:54Z</time>
      </trkpt>
      <trkpt lat="47.1195" lon="2.37486">
        <ele>148</ele>
        <time>2015-09-16T06:41:04Z</time>
      </trkpt>
      <trkpt lat="47.11954" lon="2.37498">
        <ele>148</ele>
        <time>2015-09-16T06:41:16Z</time>
      </trkpt>
      <trkpt lat="47.11961" lon="2.37507">
        <ele>148</ele>
        <time>2015-09-16T06:41:23Z</time>
      </trkpt>
      <trkpt lat="47.1197" lon="2.37501">
        <ele>154</ele>
        <time>2015-09-16T06:42:16Z</time>
      </trkpt>
      <trkpt lat="47.11962" lon="2.37507">
        <ele>154</ele>
        <time>2015-09-16T06:42:29Z</time>
      </trkpt>
      <trkpt lat="47.1197" lon="2.37513">
        <ele>169</ele>
        <time>2015-09-16T06:43:13Z</time>
      </trkpt>
      <trkpt lat="47.11965" lon="2.37502">
        <ele>153</ele>
        <time>2015-09-16T06:43:53Z</time>
      </trkpt>
      <trkpt lat="47.11969" lon="2.37516">
        <ele>153</ele>
        <time>2015-09-16T06:46:41Z</time>
      </trkpt>
      <trkpt lat="47.11975" lon="2.37526">
        <ele>153</ele>
        <time>2015-09-16T06:46:51Z</time>
      </trkpt>
      <trkpt lat="47.11979" lon="2.37538">
        <ele>145</ele>
        <time>2015-09-16T06:47:04Z</time>
      </trkpt>
      <trkpt lat="47.11984" lon="2.3755">
        <ele>145</ele>
        <time>2015-09-16T06:47:12Z</time>
      </trkpt>
      <trkpt lat="47.11991" lon="2.3756">
        <ele>145</ele>
        <time>2015-09-16T06:47:18Z</time>
      </trkpt>
      <trkpt lat="47.11997" lon="2.37571">
        <ele>145</ele>
        <time>2015-09-16T06:47:26Z</time>
      </trkpt>
      <trkpt lat="47.12003" lon="2.37581">
        <ele>145</ele>
        <time>2015-09-16T06:47:33Z</time>
      </trkpt>
      <trkpt lat="47.1201" lon="2.37591">
        <ele>151</ele>
        <time>2015-09-16T06:47:42Z</time>
      </trkpt>
      <trkpt lat="47.12016" lon="2.37602">
        <ele>151</ele>
        <time>2015-09-16T06:47:49Z</time>
      </trkpt>
      <trkpt lat="47.12021" lon="2.37613">
        <ele>151</ele>
        <time>2015-09-16T06:47:56Z</time>
      </trkpt>
      <trkpt lat="47.12025" lon="2.37625">
        <ele>151</ele>
        <time>2015-09-16T06:48:04Z</time>
      </trkpt>
      <trkpt lat="47.12027" lon="2.37639">
        <ele>151</ele>
        <time>2015-09-16T06:48:14Z</time>
      </trkpt>
      <trkpt lat="47.12033" lon="2.3765">
        <ele>143</ele>
        <time>2015-09-16T06:48:21Z</time>
      </trkpt>
      <trkpt lat="47.12039" lon="2.3766">
        <ele>143</ele>
        <time>2015-09-16T06:48:29Z</time>
      </trkpt>
      <trkpt lat="47.12046" lon="2.37671">
        <ele>143</ele>
        <time>2015-09-16T06:48:36Z</time>
      </trkpt>
      <trkpt lat="47.1205" lon="2.37683">
        <ele>143</ele>
        <time>2015-09-16T06:48:44Z</time>
      </trkpt>
      <trkpt lat="47.12055" lon="2.37694">
        <ele>143</ele>
        <time>2015-09-16T06:48:51Z</time>
      </trkpt>
      <trkpt lat="47.12061" lon="2.37706">
        <ele>143</ele>
        <time>2015-09-16T06:48:58Z</time>
      </trkpt>
      <trkpt lat="47.12067" lon="2.37716">
        <ele>143</ele>
        <time>2015-09-16T06:49:05Z</time>
      </trkpt>
      <trkpt lat="47.12074" lon="2.37727">
        <ele>143</ele>
        <time>2015-09-16T06:49:12Z</time>
      </trkpt>
      <trkpt lat="47.12081" lon="2.37736">
        <ele>143</ele>
        <time>2015-09-16T06:49:19Z</time>
      </trkpt>
      <trkpt lat="47.12084" lon="2.37749">
        <ele>143</ele>
        <time>2015-09-16T06:49:27Z</time>
      </trkpt>
      <trkpt lat="47.12089" lon="2.37761">
        <ele>143</ele>
        <time>2015-09-16T06:49:33Z</time>
      </trkpt>
      <trkpt lat="47.12095" lon="2.37772">
        <ele>143</ele>
        <time>2015-09-16T06:49:39Z</time>
      </trkpt>
      <trkpt lat="47.12097" lon="2.37785">
        <ele>143</ele>
        <time>2015-09-16T06:49:47Z</time>
      </trkpt>
      <trkpt lat="47.12101" lon="2.37798">
        <ele>143</ele>
        <time>2015-09-16T06:49:56Z</time>
      </trkpt>
      <trkpt lat="47.12108" lon="2.37809">
        <ele>143</ele>
        <time>2015-09-16T06:50:03Z</time>
      </trkpt>
      <trkpt lat="47.12117" lon="2.3781">
        <ele>143</ele>
        <time>2015-09-16T06:50:11Z</time>
      </trkpt>
      <trkpt lat="47.12127" lon="2.37808">
        <ele>143</ele>
        <time>2015-09-16T06:50:19Z</time>
      </trkpt>
      <trkpt lat="47.12135" lon="2.37799">
        <ele>143</ele>
        <time>2015-09-16T06:50:27Z</time>
      </trkpt>
      <trkpt lat="47.12139" lon="2.37788">
        <ele>143</ele>
        <time>2015-09-16T06:50:36Z</time>
      </trkpt>
      <trkpt lat="47.12146" lon="2.37778">
        <ele>151</ele>
        <time>2015-09-16T06:50:43Z</time>
      </trkpt>
      <trkpt lat="47.12154" lon="2.37769">
        <ele>151</ele>
        <time>2015-09-16T06:50:50Z</time>
      </trkpt>
      <trkpt lat="47.12162" lon="2.37758">
        <ele>151</ele>
        <time>2015-09-16T06:50:59Z</time>
      </trkpt>
      <trkpt lat="47.1217" lon="2.37751">
        <ele>151</ele>
        <time>2015-09-16T06:51:05Z</time>
      </trkpt>
      <trkpt lat="47.12174" lon="2.37739">
        <ele>151</ele>
        <time>2015-09-16T06:51:13Z</time>
      </trkpt>
      <trkpt lat="47.12181" lon="2.37728">
        <ele>151</ele>
        <time>2015-09-16T06:51:43Z</time>
      </trkpt>
      <trkpt lat="47.12185" lon="2.37717">
        <ele>145</ele>
        <time>2015-09-16T06:51:49Z</time>
      </trkpt>
      <trkpt lat="47.12192" lon="2.37706">
        <ele>145</ele>
        <time>2015-09-16T06:51:57Z</time>
      </trkpt>
      <trkpt lat="47.12198" lon="2.37695">
        <ele>150</ele>
        <time>2015-09-16T06:52:04Z</time>
      </trkpt>
      <trkpt lat="47.12204" lon="2.37683">
        <ele>156</ele>
        <time>2015-09-16T06:52:11Z</time>
      </trkpt>
      <trkpt lat="47.12212" lon="2.37675">
        <ele>156</ele>
        <time>2015-09-16T06:52:18Z</time>
      </trkpt>
      <trkpt lat="47.12217" lon="2.37664">
        <ele>156</ele>
        <time>2015-09-16T06:52:25Z</time>
      </trkpt>
      <trkpt lat="47.12224" lon="2.37651">
        <ele>151</ele>
        <time>2015-09-16T06:52:33Z</time>
      </trkpt>
      <trkpt lat="47.1223" lon="2.37639">
        <ele>151</ele>
        <time>2015-09-16T06:52:41Z</time>
      </trkpt>
      <trkpt lat="47.12236" lon="2.37627">
        <ele>151</ele>
        <time>2015-09-16T06:52:48Z</time>
      </trkpt>
      <trkpt lat="47.12241" lon="2.37614">
        <ele>144</ele>
        <time>2015-09-16T06:52:55Z</time>
      </trkpt>
      <trkpt lat="47.12247" lon="2.37603">
        <ele>144</ele>
        <time>2015-09-16T06:53:01Z</time>
      </trkpt>
      <trkpt lat="47.12254" lon="2.37592">
        <ele>144</ele>
        <time>2015-09-16T06:53:07Z</time>
      </trkpt>
      <trkpt lat="47.12258" lon="2.37579">
        <ele>144</ele>
        <time>2015-09-16T06:53:14Z</time>
      </trkpt>
      <trkpt lat="47.12265" lon="2.37569">
        <ele>144</ele>
        <time>2015-09-16T06:53:20Z</time>
      </trkpt>
      <trkpt lat="47.12271" lon="2.37557">
        <ele>151</ele>
        <time>2015-09-16T06:53:26Z</time>
      </trkpt>
      <trkpt lat="47.12277" lon="2.37546">
        <ele>151</ele>
        <time>2015-09-16T06:53:33Z</time>
      </trkpt>
      <trkpt lat="47.12282" lon="2.37533">
        <ele>151</ele>
        <time>2015-09-16T06:53:40Z</time>
      </trkpt>
      <trkpt lat="47.12289" lon="2.37522">
        <ele>151</ele>
        <time>2015-09-16T06:53:47Z</time>
      </trkpt>
      <trkpt lat="47.12298" lon="2.37515">
        <ele>144</ele>
        <time>2015-09-16T06:53:54Z</time>
      </trkpt>
      <trkpt lat="47.12306" lon="2.37522">
        <ele>144</ele>
        <time>2015-09-16T06:54:03Z</time>
      </trkpt>
      <trkpt lat="47.12316" lon="2.37525">
        <ele>136</ele>
        <time>2015-09-16T06:54:10Z</time>
      </trkpt>
      <trkpt lat="47.12324" lon="2.37533">
        <ele>136</ele>
        <time>2015-09-16T06:54:17Z</time>
      </trkpt>
      <trkpt lat="47.12329" lon="2.37545">
        <ele>136</ele>
        <time>2015-09-16T06:54:27Z</time>
      </trkpt>
      <trkpt lat="47.12332" lon="2.37558">
        <ele>131</ele>
        <time>2015-09-16T06:54:34Z</time>
      </trkpt>
      <trkpt lat="47.12335" lon="2.3757">
        <ele>131</ele>
        <time>2015-09-16T06:54:41Z</time>
      </trkpt>
      <trkpt lat="47.12342" lon="2.37581">
        <ele>131</ele>
        <time>2015-09-16T06:54:48Z</time>
      </trkpt>
      <trkpt lat="47.12349" lon="2.37591">
        <ele>137</ele>
        <time>2015-09-16T06:54:53Z</time>
      </trkpt>
      <trkpt lat="47.12356" lon="2.37599">
        <ele>137</ele>
        <time>2015-09-16T06:54:58Z</time>
      </trkpt>
      <trkpt lat="47.12363" lon="2.37608">
        <ele>137</ele>
        <time>2015-09-16T06:55:06Z</time>
      </trkpt>
      <trkpt lat="47.12369" lon="2.3762">
        <ele>137</ele>
        <time>2015-09-16T06:55:11Z</time>
      </trkpt>
      <trkpt lat="47.12374" lon="2.3763">
        <ele>137</ele>
        <time>2015-09-16T06:55:16Z</time>
      </trkpt>
      <trkpt lat="47.12375" lon="2.37645">
        <ele>137</ele>
        <time>2015-09-16T06:55:23Z</time>
      </trkpt>
      <trkpt lat="47.12379" lon="2.37658">
        <ele>127</ele>
        <time>2015-09-16T06:55:30Z</time>
      </trkpt>
      <trkpt lat="47.12388" lon="2.37667">
        <ele>127</ele>
        <time>2015-09-16T06:55:35Z</time>
      </trkpt>
      <trkpt lat="47.12394" lon="2.37677">
        <ele>134</ele>
        <time>2015-09-16T06:55:41Z</time>
      </trkpt>
      <trkpt lat="47.12401" lon="2.37687">
        <ele>134</ele>
        <time>2015-09-16T06:55:48Z</time>
      </trkpt>
      <trkpt lat="47.12409" lon="2.37695">
        <ele>134</ele>
        <time>2015-09-16T06:55:54Z</time>
      </trkpt>
      <trkpt lat="47.12414" lon="2.37708">
        <ele>134</ele>
        <time>2015-09-16T06:56:03Z</time>
      </trkpt>
      <trkpt lat="47.12422" lon="2.37716">
        <ele>134</ele>
        <time>2015-09-16T06:56:09Z</time>
      </trkpt>
      <trkpt lat="47.1243" lon="2.37723">
        <ele>144</ele>
        <time>2015-09-16T06:56:13Z</time>
      </trkpt>
      <trkpt lat="47.12437" lon="2.37732">
        <ele>144</ele>
        <time>2015-09-16T06:56:20Z</time>
      </trkpt>
      <trkpt lat="47.12445" lon="2.3774">
        <ele>144</ele>
        <time>2015-09-16T06:56:25Z</time>
      </trkpt>
      <trkpt lat="47.1245" lon="2.37753">
        <ele>144</ele>
        <time>2015-09-16T06:56:32Z</time>
      </trkpt>
      <trkpt lat="47.12453" lon="2.37766">
        <ele>144</ele>
        <time>2015-09-16T06:56:40Z</time>
      </trkpt>
      <trkpt lat="47.12458" lon="2.3778">
        <ele>137</ele>
        <time>2015-09-16T06:56:48Z</time>
      </trkpt>
      <trkpt lat="47.12463" lon="2.37791">
        <ele>137</ele>
        <time>2015-09-16T06:56:54Z</time>
      </trkpt>
      <trkpt lat="47.12468" lon="2.37803">
        <ele>144</ele>
        <time>2015-09-16T06:57:00Z</time>
      </trkpt>
      <trkpt lat="47.12474" lon="2.37815">
        <ele>144</ele>
        <time>2015-09-16T06:57:07Z</time>
      </trkpt>
      <trkpt lat="47.12476" lon="2.37828">
        <ele>144</ele>
        <time>2015-09-16T06:57:15Z</time>
      </trkpt>
      <trkpt lat="47.12478" lon="2.37842">
        <ele>139</ele>
        <time>2015-09-16T06:57:23Z</time>
      </trkpt>
      <trkpt lat="47.12483" lon="2.37858">
        <ele>139</ele>
        <time>2015-09-16T06:57:30Z</time>
      </trkpt>
      <trkpt lat="47.12487" lon="2.37871">
        <ele>139</ele>
        <time>2015-09-16T06:57:34Z</time>
      </trkpt>
      <trkpt lat="47.12484" lon="2.37885">
        <ele>145</ele>
        <time>2015-09-16T06:57:43Z</time>
      </trkpt>
      <trkpt lat="47.12483" lon="2.37899">
        <ele>145</ele>
        <time>2015-09-16T06:57:48Z</time>
      </trkpt>
      <trkpt lat="47.12488" lon="2.37911">
        <ele>145</ele>
        <time>2015-09-16T06:57:53Z</time>
      </trkpt>
      <trkpt lat="47.12492" lon="2.37923">
        <ele>145</ele>
        <time>2015-09-16T06:58:00Z</time>
      </trkpt>
      <trkpt lat="47.12489" lon="2.37937">
        <ele>139</ele>
        <time>2015-09-16T06:58:06Z</time>
      </trkpt>
      <trkpt lat="47.12488" lon="2.3795">
        <ele>133</ele>
        <time>2015-09-16T06:58:12Z</time>
      </trkpt>
      <trkpt lat="47.1249" lon="2.37964">
        <ele>133</ele>
        <time>2015-09-16T06:58:22Z</time>
      </trkpt>
      <trkpt lat="47.12493" lon="2.37977">
        <ele>133</ele>
        <time>2015-09-16T06:58:28Z</time>
      </trkpt>
      <trkpt lat="47.12493" lon="2.37991">
        <ele>140</ele>
        <time>2015-09-16T06:58:35Z</time>
      </trkpt>
      <trkpt lat="47.12503" lon="2.38">
        <ele>140</ele>
        <time>2015-09-16T06:58:41Z</time>
      </trkpt>
      <trkpt lat="47.12509" lon="2.38011">
        <ele>140</ele>
        <time>2015-09-16T06:58:49Z</time>
      </trkpt>
      <trkpt lat="47.1251" lon="2.38025">
        <ele>140</ele>
        <time>2015-09-16T06:58:57Z</time>
      </trkpt>
      <trkpt lat="47.12515" lon="2.38037">
        <ele>134</ele>
        <time>2015-09-16T06:59:03Z</time>
      </trkpt>
      <trkpt lat="47.12518" lon="2.38049">
        <ele>134</ele>
        <time>2015-09-16T06:59:09Z</time>
      </trkpt>
      <trkpt lat="47.12517" lon="2.38065">
        <ele>134</ele>
        <time>2015-09-16T06:59:17Z</time>
      </trkpt>
      <trkpt lat="47.12526" lon="2.38073">
        <ele>129</ele>
        <time>2015-09-16T06:59:25Z</time>
      </trkpt>
      <trkpt lat="47.12533" lon="2.38083">
        <ele>129</ele>
        <time>2015-09-16T06:59:33Z</time>
      </trkpt>
      <trkpt lat="47.12542" lon="2.38092">
        <ele>129</ele>
        <time>2015-09-16T06:59:40Z</time>
      </trkpt>
      <trkpt lat="47.1255" lon="2.38099">
        <ele>129</ele>
        <time>2015-09-16T06:59:47Z</time>
      </trkpt>
      <trkpt lat="47.12558" lon="2.38107">
        <ele>129</ele>
        <time>2015-09-16T06:59:54Z</time>
      </trkpt>
      <trkpt lat="47.12566" lon="2.38112">
        <ele>129</ele>
        <time>2015-09-16T06:59:59Z</time>
      </trkpt>
      <trkpt lat="47.12573" lon="2.38122">
        <ele>129</ele>
        <time>2015-09-16T07:00:07Z</time>
      </trkpt>
      <trkpt lat="47.12581" lon="2.38129">
        <ele>129</ele>
        <time>2015-09-16T07:00:12Z</time>
      </trkpt>
      <trkpt lat="47.1259" lon="2.38135">
        <ele>129</ele>
        <time>2015-09-16T07:00:16Z</time>
      </trkpt>
      <trkpt lat="47.12598" lon="2.38143">
        <ele>129</ele>
        <time>2015-09-16T07:00:23Z</time>
      </trkpt>
      <trkpt lat="47.12604" lon="2.38153">
        <ele>129</ele>
        <time>2015-09-16T07:00:31Z</time>
      </trkpt>
      <trkpt lat="47.12612" lon="2.38161">
        <ele>129</ele>
        <time>2015-09-16T07:00:38Z</time>
      </trkpt>
      <trkpt lat="47.12621" lon="2.38169">
        <ele>129</ele>
        <time>2015-09-16T07:00:45Z</time>
      </trkpt>
      <trkpt lat="47.12631" lon="2.38178">
        <ele>135</ele>
        <time>2015-09-16T07:00:52Z</time>
      </trkpt>
      <trkpt lat="47.12639" lon="2.38187">
        <ele>135</ele>
        <time>2015-09-16T07:00:58Z</time>
      </trkpt>
      <trkpt lat="47.12646" lon="2.38196">
        <ele>135</ele>
        <time>2015-09-16T07:01:04Z</time>
      </trkpt>
      <trkpt lat="47.12654" lon="2.38205">
        <ele>135</ele>
        <time>2015-09-16T07:01:11Z</time>
      </trkpt>
      <trkpt lat="47.12661" lon="2.38214">
        <ele>135</ele>
        <time>2015-09-16T07:01:19Z</time>
      </trkpt>
      <trkpt lat="47.12668" lon="2.38223">
        <ele>135</ele>
        <time>2015-09-16T07:01:28Z</time>
      </trkpt>
      <trkpt lat="47.12676" lon="2.38231">
        <ele>135</ele>
        <time>2015-09-16T07:01:34Z</time>
      </trkpt>
      <trkpt lat="47.12683" lon="2.38239">
        <ele>135</ele>
        <time>2015-09-16T07:01:41Z</time>
      </trkpt>
      <trkpt lat="47.12691" lon="2.38248">
        <ele>135</ele>
        <time>2015-09-16T07:01:50Z</time>
      </trkpt>
      <trkpt lat="47.12699" lon="2.38258">
        <ele>135</ele>
        <time>2015-09-16T07:01:59Z</time>
      </trkpt>
      <trkpt lat="47.12704" lon="2.3827">
        <ele>135</ele>
        <time>2015-09-16T07:02:12Z</time>
      </trkpt>
      <trkpt lat="47.12707" lon="2.38284">
        <ele>135</ele>
        <time>2015-09-16T07:02:17Z</time>
      </trkpt>
      <trkpt lat="47.12716" lon="2.38271">
        <ele>156</ele>
        <time>2015-09-16T07:02:53Z</time>
      </trkpt>
      <trkpt lat="47.12709" lon="2.38281">
        <ele>145</ele>
        <time>2015-09-16T07:03:12Z</time>
      </trkpt>
      <trkpt lat="47.12715" lon="2.3827">
        <ele>145</ele>
        <time>2015-09-16T07:07:42Z</time>
      </trkpt>
      <trkpt lat="47.12722" lon="2.38259">
        <ele>138</ele>
        <time>2015-09-16T07:07:51Z</time>
      </trkpt>
      <trkpt lat="47.12724" lon="2.38244">
        <ele>138</ele>
        <time>2015-09-16T07:07:58Z</time>
      </trkpt>
      <trkpt lat="47.12724" lon="2.3823">
        <ele>138</ele>
        <time>2015-09-16T07:08:03Z</time>
      </trkpt>
      <trkpt lat="47.12726" lon="2.38216">
        <ele>138</ele>
        <time>2015-09-16T07:08:13Z</time>
      </trkpt>
      <trkpt lat="47.12726" lon="2.38203">
        <ele>133</ele>
        <time>2015-09-16T07:08:21Z</time>
      </trkpt>
      <trkpt lat="47.12726" lon="2.38189">
        <ele>133</ele>
        <time>2015-09-16T07:08:27Z</time>
      </trkpt>
      <trkpt lat="47.12723" lon="2.38176">
        <ele>133</ele>
        <time>2015-09-16T07:08:32Z</time>
      </trkpt>
      <trkpt lat="47.12723" lon="2.38162">
        <ele>133</ele>
        <time>2015-09-16T07:08:38Z</time>
      </trkpt>
      <trkpt lat="47.12722" lon="2.38147">
        <ele>133</ele>
        <time>2015-09-16T07:08:44Z</time>
      </trkpt>
      <trkpt lat="47.12727" lon="2.38135">
        <ele>133</ele>
        <time>2015-09-16T07:08:52Z</time>
      </trkpt>
      <trkpt lat="47.1273" lon="2.38123">
        <ele>133</ele>
        <time>2015-09-16T07:08:59Z</time>
      </trkpt>
      <trkpt lat="47.12732" lon="2.38109">
        <ele>133</ele>
        <time>2015-09-16T07:09:07Z</time>
      </trkpt>
      <trkpt lat="47.12734" lon="2.38096">
        <ele>133</ele>
        <time>2015-09-16T07:09:14Z</time>
      </trkpt>
      <trkpt lat="47.12739" lon="2.38083">
        <ele>126</ele>
        <time>2015-09-16T07:09:21Z</time>
      </trkpt>
      <trkpt lat="47.1274" lon="2.3807">
        <ele>126</ele>
        <time>2015-09-16T07:09:29Z</time>
      </trkpt>
      <trkpt lat="47.12732" lon="2.3806">
        <ele>133</ele>
        <time>2015-09-16T07:09:35Z</time>
      </trkpt>
      <trkpt lat="47.12734" lon="2.38046">
        <ele>133</ele>
        <time>2015-09-16T07:09:42Z</time>
      </trkpt>
      <trkpt lat="47.1274" lon="2.38033">
        <ele>127</ele>
        <time>2015-09-16T07:09:49Z</time>
      </trkpt>
      <trkpt lat="47.12741" lon="2.38019">
        <ele>127</ele>
        <time>2015-09-16T07:09:55Z</time>
      </trkpt>
      <trkpt lat="47.12743" lon="2.38006">
        <ele>127</ele>
        <time>2015-09-16T07:10:02Z</time>
      </trkpt>
      <trkpt lat="47.12743" lon="2.37993">
        <ele>133</ele>
        <time>2015-09-16T07:10:08Z</time>
      </trkpt>
      <trkpt lat="47.12747" lon="2.3798">
        <ele>133</ele>
        <time>2015-09-16T07:10:14Z</time>
      </trkpt>
      <trkpt lat="47.1275" lon="2.37966">
        <ele>133</ele>
        <time>2015-09-16T07:10:20Z</time>
      </trkpt>
      <trkpt lat="47.1275" lon="2.37952">
        <ele>133</ele>
        <time>2015-09-16T07:10:22Z</time>
      </trkpt>
      <trkpt lat="47.12753" lon="2.3794">
        <ele>133</ele>
        <time>2015-09-16T07:10:26Z</time>
      </trkpt>
      <trkpt lat="47.12756" lon="2.37927">
        <ele>133</ele>
        <time>2015-09-16T07:10:33Z</time>
      </trkpt>
      <trkpt lat="47.1276" lon="2.37913">
        <ele>140</ele>
        <time>2015-09-16T07:10:40Z</time>
      </trkpt>
      <trkpt lat="47.12764" lon="2.37884">
        <ele>140</ele>
        <time>2015-09-16T07:10:53Z</time>
      </trkpt>
      <trkpt lat="47.12768" lon="2.37871">
        <ele>146</ele>
        <time>2015-09-16T07:10:59Z</time>
      </trkpt>
      <trkpt lat="47.12772" lon="2.37858">
        <ele>146</ele>
        <time>2015-09-16T07:11:08Z</time>
      </trkpt>
      <trkpt lat="47.12778" lon="2.37846">
        <ele>139</ele>
        <time>2015-09-16T07:11:13Z</time>
      </trkpt>
      <trkpt lat="47.1278" lon="2.37833">
        <ele>133</ele>
        <time>2015-09-16T07:11:21Z</time>
      </trkpt>
      <trkpt lat="47.12782" lon="2.37819">
        <ele>133</ele>
        <time>2015-09-16T07:11:28Z</time>
      </trkpt>
      <trkpt lat="47.12783" lon="2.37805">
        <ele>133</ele>
        <time>2015-09-16T07:11:35Z</time>
      </trkpt>
      <trkpt lat="47.12785" lon="2.37792">
        <ele>133</ele>
        <time>2015-09-16T07:11:45Z</time>
      </trkpt>
      <trkpt lat="47.12788" lon="2.37779">
        <ele>133</ele>
        <time>2015-09-16T07:11:53Z</time>
      </trkpt>
      <trkpt lat="47.12789" lon="2.37765">
        <ele>141</ele>
        <time>2015-09-16T07:12:00Z</time>
      </trkpt>
      <trkpt lat="47.12789" lon="2.37752">
        <ele>141</ele>
        <time>2015-09-16T07:12:06Z</time>
      </trkpt>
      <trkpt lat="47.12792" lon="2.37739">
        <ele>141</ele>
        <time>2015-09-16T07:12:12Z</time>
      </trkpt>
      <trkpt lat="47.12796" lon="2.37727">
        <ele>141</ele>
        <time>2015-09-16T07:12:20Z</time>
      </trkpt>
      <trkpt lat="47.12798" lon="2.37714">
        <ele>134</ele>
        <time>2015-09-16T07:12:28Z</time>
      </trkpt>
      <trkpt lat="47.12804" lon="2.37701">
        <ele>134</ele>
        <time>2015-09-16T07:12:35Z</time>
      </trkpt>
      <trkpt lat="47.12808" lon="2.37688">
        <ele>134</ele>
        <time>2015-09-16T07:12:42Z</time>
      </trkpt>
      <trkpt lat="47.12808" lon="2.37675">
        <ele>134</ele>
        <time>2015-09-16T07:12:49Z</time>
      </trkpt>
      <trkpt lat="47.12809" lon="2.37661">
        <ele>134</ele>
        <time>2015-09-16T07:12:54Z</time>
      </trkpt>
      <trkpt lat="47.1281" lon="2.37648">
        <ele>134</ele>
        <time>2015-09-16T07:13:00Z</time>
      </trkpt>
      <trkpt lat="47.12812" lon="2.37634">
        <ele>134</ele>
        <time>2015-09-16T07:13:08Z</time>
      </trkpt>
      <trkpt lat="47.12816" lon="2.37622">
        <ele>134</ele>
        <time>2015-09-16T07:13:15Z</time>
      </trkpt>
      <trkpt lat="47.12818" lon="2.37607">
        <ele>134</ele>
        <time>2015-09-16T07:13:21Z</time>
      </trkpt>
      <trkpt lat="47.12818" lon="2.37594">
        <ele>134</ele>
        <time>2015-09-16T07:13:28Z</time>
      </trkpt>
      <trkpt lat="47.12822" lon="2.3758">
        <ele>134</ele>
        <time>2015-09-16T07:13:36Z</time>
      </trkpt>
      <trkpt lat="47.12826" lon="2.37568">
        <ele>134</ele>
        <time>2015-09-16T07:13:42Z</time>
      </trkpt>
      <trkpt lat="47.12823" lon="2.37545">
        <ele>134</ele>
        <time>2015-09-16T07:13:53Z</time>
      </trkpt>
      <trkpt lat="47.12815" lon="2.37538">
        <ele>143</ele>
        <time>2015-09-16T07:14:00Z</time>
      </trkpt>
      <trkpt lat="47.12823" lon="2.37531">
        <ele>143</ele>
        <time>2015-09-16T07:14:16Z</time>
      </trkpt>
      <trkpt lat="47.12826" lon="2.37544">
        <ele>137</ele>
        <time>2015-09-16T07:15:02Z</time>
      </trkpt>
      <trkpt lat="47.12834" lon="2.37548">
        <ele>137</ele>
        <time>2015-09-16T07:15:09Z</time>
      </trkpt>
      <trkpt lat="47.12843" lon="2.37551">
        <ele>137</ele>
        <time>2015-09-16T07:15:15Z</time>
      </trkpt>
      <trkpt lat="47.12853" lon="2.37554">
        <ele>137</ele>
        <time>2015-09-16T07:15:21Z</time>
      </trkpt>
      <trkpt lat="47.12862" lon="2.37557">
        <ele>137</ele>
        <time>2015-09-16T07:15:28Z</time>
      </trkpt>
      <trkpt lat="47.12871" lon="2.37562">
        <ele>137</ele>
        <time>2015-09-16T07:15:35Z</time>
      </trkpt>
      <trkpt lat="47.12881" lon="2.37566">
        <ele>137</ele>
        <time>2015-09-16T07:15:41Z</time>
      </trkpt>
      <trkpt lat="47.12891" lon="2.37569">
        <ele>137</ele>
        <time>2015-09-16T07:15:46Z</time>
      </trkpt>
      <trkpt lat="47.129" lon="2.37574">
        <ele>137</ele>
        <time>2015-09-16T07:15:52Z</time>
      </trkpt>
      <trkpt lat="47.12909" lon="2.37577">
        <ele>137</ele>
        <time>2015-09-16T07:15:58Z</time>
      </trkpt>
      <trkpt lat="47.12919" lon="2.37579">
        <ele>137</ele>
        <time>2015-09-16T07:16:03Z</time>
      </trkpt>
      <trkpt lat="47.12927" lon="2.37585">
        <ele>137</ele>
        <time>2015-09-16T07:16:10Z</time>
      </trkpt>
      <trkpt lat="47.12937" lon="2.37589">
        <ele>137</ele>
        <time>2015-09-16T07:16:17Z</time>
      </trkpt>
      <trkpt lat="47.12945" lon="2.37593">
        <ele>137</ele>
        <time>2015-09-16T07:16:23Z</time>
      </trkpt>
      <trkpt lat="47.12954" lon="2.37597">
        <ele>144</ele>
        <time>2015-09-16T07:16:29Z</time>
      </trkpt>
      <trkpt lat="47.12964" lon="2.37604">
        <ele>144</ele>
        <time>2015-09-16T07:16:37Z</time>
      </trkpt>
      <trkpt lat="47.12973" lon="2.37607">
        <ele>144</ele>
        <time>2015-09-16T07:16:42Z</time>
      </trkpt>
      <trkpt lat="47.12983" lon="2.37611">
        <ele>144</ele>
        <time>2015-09-16T07:16:47Z</time>
      </trkpt>
      <trkpt lat="47.12991" lon="2.37614">
        <ele>144</ele>
        <time>2015-09-16T07:16:53Z</time>
      </trkpt>
      <trkpt lat="47.12999" lon="2.37622">
        <ele>144</ele>
        <time>2015-09-16T07:17:02Z</time>
      </trkpt>
      <trkpt lat="47.13009" lon="2.37624">
        <ele>144</ele>
        <time>2015-09-16T07:17:07Z</time>
      </trkpt>
      <trkpt lat="47.13018" lon="2.3763">
        <ele>151</ele>
        <time>2015-09-16T07:17:15Z</time>
      </trkpt>
      <trkpt lat="47.13028" lon="2.37634">
        <ele>151</ele>
        <time>2015-09-16T07:17:21Z</time>
      </trkpt>
      <trkpt lat="47.13037" lon="2.37639">
        <ele>151</ele>
        <time>2015-09-16T07:17:27Z</time>
      </trkpt>
      <trkpt lat="47.13047" lon="2.37644">
        <ele>151</ele>
        <time>2015-09-16T07:17:34Z</time>
      </trkpt>
      <trkpt lat="47.13056" lon="2.37647">
        <ele>151</ele>
        <time>2015-09-16T07:17:38Z</time>
      </trkpt>
      <trkpt lat="47.13065" lon="2.37648">
        <ele>151</ele>
        <time>2015-09-16T07:17:41Z</time>
      </trkpt>
      <trkpt lat="47.13073" lon="2.37656">
        <ele>151</ele>
        <time>2015-09-16T07:17:50Z</time>
      </trkpt>
      <trkpt lat="47.13081" lon="2.37663">
        <ele>151</ele>
        <time>2015-09-16T07:18:00Z</time>
      </trkpt>
      <trkpt lat="47.13092" lon="2.37667">
        <ele>151</ele>
        <time>2015-09-16T07:18:05Z</time>
      </trkpt>
      <trkpt lat="47.13101" lon="2.3767">
        <ele>151</ele>
        <time>2015-09-16T07:18:10Z</time>
      </trkpt>
      <trkpt lat="47.13111" lon="2.37675">
        <ele>151</ele>
        <time>2015-09-16T07:18:17Z</time>
      </trkpt>
      <trkpt lat="47.13119" lon="2.37683">
        <ele>151</ele>
        <time>2015-09-16T07:18:24Z</time>
      </trkpt>
      <trkpt lat="47.13128" lon="2.37688">
        <ele>151</ele>
        <time>2015-09-16T07:18:32Z</time>
      </trkpt>
      <trkpt lat="47.13138" lon="2.37694">
        <ele>151</ele>
        <time>2015-09-16T07:18:38Z</time>
      </trkpt>
      <trkpt lat="47.13147" lon="2.37701">
        <ele>151</ele>
        <time>2015-09-16T07:18:45Z</time>
      </trkpt>
      <trkpt lat="47.13155" lon="2.37707">
        <ele>151</ele>
        <time>2015-09-16T07:18:51Z</time>
      </trkpt>
      <trkpt lat="47.13163" lon="2.37714">
        <ele>144</ele>
        <time>2015-09-16T07:18:58Z</time>
      </trkpt>
      <trkpt lat="47.13172" lon="2.37721">
        <ele>144</ele>
        <time>2015-09-16T07:19:07Z</time>
      </trkpt>
      <trkpt lat="47.13182" lon="2.37724">
        <ele>144</ele>
        <time>2015-09-16T07:19:11Z</time>
      </trkpt>
      <trkpt lat="47.13192" lon="2.37727">
        <ele>150</ele>
        <time>2015-09-16T07:19:15Z</time>
      </trkpt>
      <trkpt lat="47.13202" lon="2.37733">
        <ele>150</ele>
        <time>2015-09-16T07:19:21Z</time>
      </trkpt>
      <trkpt lat="47.13211" lon="2.37738">
        <ele>150</ele>
        <time>2015-09-16T07:19:28Z</time>
      </trkpt>
      <trkpt lat="47.13219" lon="2.37744">
        <ele>150</ele>
        <time>2015-09-16T07:19:33Z</time>
      </trkpt>
      <trkpt lat="47.13228" lon="2.37749">
        <ele>150</ele>
        <time>2015-09-16T07:19:39Z</time>
      </trkpt>
      <trkpt lat="47.13238" lon="2.37754">
        <ele>150</ele>
        <time>2015-09-16T07:19:44Z</time>
      </trkpt>
      <trkpt lat="47.13247" lon="2.37762">
        <ele>150</ele>
        <time>2015-09-16T07:19:52Z</time>
      </trkpt>
      <trkpt lat="47.13256" lon="2.37765">
        <ele>150</ele>
        <time>2015-09-16T07:19:57Z</time>
      </trkpt>
      <trkpt lat="47.13265" lon="2.37772">
        <ele>150</ele>
        <time>2015-09-16T07:20:06Z</time>
      </trkpt>
      <trkpt lat="47.13274" lon="2.37778">
        <ele>150</ele>
        <time>2015-09-16T07:20:12Z</time>
      </trkpt>
      <trkpt lat="47.13284" lon="2.37784">
        <ele>150</ele>
        <time>2015-09-16T07:20:19Z</time>
      </trkpt>
      <trkpt lat="47.13293" lon="2.3779">
        <ele>150</ele>
        <time>2015-09-16T07:20:26Z</time>
      </trkpt>
      <trkpt lat="47.13303" lon="2.37797">
        <ele>150</ele>
        <time>2015-09-16T07:20:34Z</time>
      </trkpt>
      <trkpt lat="47.13312" lon="2.37802">
        <ele>150</ele>
        <time>2015-09-16T07:20:41Z</time>
      </trkpt>
      <trkpt lat="47.13321" lon="2.37807">
        <ele>150</ele>
        <time>2015-09-16T07:20:48Z</time>
      </trkpt>
      <trkpt lat="47.1333" lon="2.37814">
        <ele>150</ele>
        <time>2015-09-16T07:20:54Z</time>
      </trkpt>
      <trkpt lat="47.1334" lon="2.3782">
        <ele>150</ele>
        <time>2015-09-16T07:21:01Z</time>
      </trkpt>
      <trkpt lat="47.13348" lon="2.37826">
        <ele>150</ele>
        <time>2015-09-16T07:21:09Z</time>
      </trkpt>
      <trkpt lat="47.13355" lon="2.37834">
        <ele>156</ele>
        <time>2015-09-16T07:24:22Z</time>
      </trkpt>
      <trkpt lat="47.13364" lon="2.3784">
        <ele>156</ele>
        <time>2015-09-16T07:24:29Z</time>
      </trkpt>
      <trkpt lat="47.13373" lon="2.37842">
        <ele>156</ele>
        <time>2015-09-16T07:24:35Z</time>
      </trkpt>
      <trkpt lat="47.13382" lon="2.37846">
        <ele>156</ele>
        <time>2015-09-16T07:24:41Z</time>
      </trkpt>
      <trkpt lat="47.1339" lon="2.3785">
        <ele>156</ele>
        <time>2015-09-16T07:24:46Z</time>
      </trkpt>
      <trkpt lat="47.13399" lon="2.37856">
        <ele>156</ele>
        <time>2015-09-16T07:24:52Z</time>
      </trkpt>
      <trkpt lat="47.13408" lon="2.37862">
        <ele>156</ele>
        <time>2015-09-16T07:24:59Z</time>
      </trkpt>
      <trkpt lat="47.13416" lon="2.37869">
        <ele>156</ele>
        <time>2015-09-16T07:25:06Z</time>
      </trkpt>
      <trkpt lat="47.13425" lon="2.37874">
        <ele>156</ele>
        <time>2015-09-16T07:25:15Z</time>
      </trkpt>
      <trkpt lat="47.13434" lon="2.37878">
        <ele>156</ele>
        <time>2015-09-16T07:25:24Z</time>
      </trkpt>
      <trkpt lat="47.13442" lon="2.37887">
        <ele>156</ele>
        <time>2015-09-16T07:25:31Z</time>
      </trkpt>
      <trkpt lat="47.1344" lon="2.37901">
        <ele>156</ele>
        <time>2015-09-16T07:25:43Z</time>
      </trkpt>
      <trkpt lat="47.13432" lon="2.37908">
        <ele>156</ele>
        <time>2015-09-16T07:25:48Z</time>
      </trkpt>
      <trkpt lat="47.13423" lon="2.37913">
        <ele>149</ele>
        <time>2015-09-16T07:25:59Z</time>
      </trkpt>
      <trkpt lat="47.13415" lon="2.37923">
        <ele>149</ele>
        <time>2015-09-16T07:26:05Z</time>
      </trkpt>
      <trkpt lat="47.13409" lon="2.37934">
        <ele>149</ele>
        <time>2015-09-16T07:26:15Z</time>
      </trkpt>
      <trkpt lat="47.13401" lon="2.37945">
        <ele>156</ele>
        <time>2015-09-16T07:26:22Z</time>
      </trkpt>
      <trkpt lat="47.13393" lon="2.37951">
        <ele>156</ele>
        <time>2015-09-16T07:26:27Z</time>
      </trkpt>
      <trkpt lat="47.13385" lon="2.37957">
        <ele>156</ele>
        <time>2015-09-16T07:26:33Z</time>
      </trkpt>
      <trkpt lat="47.13376" lon="2.37962">
        <ele>156</ele>
        <time>2015-09-16T07:26:40Z</time>
      </trkpt>
      <trkpt lat="47.13368" lon="2.37956">
        <ele>156</ele>
        <time>2015-09-16T07:26:49Z</time>
      </trkpt>
      <trkpt lat="47.13357" lon="2.3796">
        <ele>156</ele>
        <time>2015-09-16T07:27:01Z</time>
      </trkpt>
      <trkpt lat="47.13349" lon="2.37969">
        <ele>156</ele>
        <time>2015-09-16T07:27:08Z</time>
      </trkpt>
      <trkpt lat="47.13341" lon="2.37977">
        <ele>156</ele>
        <time>2015-09-16T07:27:15Z</time>
      </trkpt>
      <trkpt lat="47.13333" lon="2.37985">
        <ele>156</ele>
        <time>2015-09-16T07:27:22Z</time>
      </trkpt>
      <trkpt lat="47.13324" lon="2.37992">
        <ele>156</ele>
        <time>2015-09-16T07:27:29Z</time>
      </trkpt>
      <trkpt lat="47.13315" lon="2.37999">
        <ele>156</ele>
        <time>2015-09-16T07:27:36Z</time>
      </trkpt>
      <trkpt lat="47.13307" lon="2.38007">
        <ele>156</ele>
        <time>2015-09-16T07:27:42Z</time>
      </trkpt>
      <trkpt lat="47.13299" lon="2.38014">
        <ele>149</ele>
        <time>2015-09-16T07:27:49Z</time>
      </trkpt>
      <trkpt lat="47.13291" lon="2.38021">
        <ele>149</ele>
        <time>2015-09-16T07:27:55Z</time>
      </trkpt>
      <trkpt lat="47.13283" lon="2.38028">
        <ele>149</ele>
        <time>2015-09-16T07:28:01Z</time>
      </trkpt>
      <trkpt lat="47.13275" lon="2.38035">
        <ele>149</ele>
        <time>2015-09-16T07:28:07Z</time>
      </trkpt>
      <trkpt lat="47.13266" lon="2.38042">
        <ele>149</ele>
        <time>2015-09-16T07:28:14Z</time>
      </trkpt>
      <trkpt lat="47.13257" lon="2.38049">
        <ele>149</ele>
        <time>2015-09-16T07:28:20Z</time>
      </trkpt>
      <trkpt lat="47.13249" lon="2.38056">
        <ele>149</ele>
        <time>2015-09-16T07:28:26Z</time>
      </trkpt>
      <trkpt lat="47.13241" lon="2.38063">
        <ele>149</ele>
        <time>2015-09-16T07:28:33Z</time>
      </trkpt>
      <trkpt lat="47.13232" lon="2.3807">
        <ele>144</ele>
        <time>2015-09-16T07:28:40Z</time>
      </trkpt>
      <trkpt lat="47.13224" lon="2.38076">
        <ele>144</ele>
        <time>2015-09-16T07:28:45Z</time>
      </trkpt>
      <trkpt lat="47.13215" lon="2.38082">
        <ele>144</ele>
        <time>2015-09-16T07:28:52Z</time>
      </trkpt>
      <trkpt lat="47.13206" lon="2.38086">
        <ele>144</ele>
        <time>2015-09-16T07:28:57Z</time>
      </trkpt>
      <trkpt lat="47.13198" lon="2.38093">
        <ele>144</ele>
        <time>2015-09-16T07:29:03Z</time>
      </trkpt>
      <trkpt lat="47.13189" lon="2.38099">
        <ele>144</ele>
        <time>2015-09-16T07:29:11Z</time>
      </trkpt>
      <trkpt lat="47.13181" lon="2.38106">
        <ele>144</ele>
        <time>2015-09-16T07:29:37Z</time>
      </trkpt>
      <trkpt lat="47.13172" lon="2.38114">
        <ele>144</ele>
        <time>2015-09-16T07:29:45Z</time>
      </trkpt>
      <trkpt lat="47.13164" lon="2.38122">
        <ele>144</ele>
        <time>2015-09-16T07:29:53Z</time>
      </trkpt>
      <trkpt lat="47.13156" lon="2.38128">
        <ele>144</ele>
        <time>2015-09-16T07:29:59Z</time>
      </trkpt>
      <trkpt lat="47.13147" lon="2.38133">
        <ele>144</ele>
        <time>2015-09-16T07:30:06Z</time>
      </trkpt>
      <trkpt lat="47.13138" lon="2.38138">
        <ele>144</ele>
        <time>2015-09-16T07:30:12Z</time>
      </trkpt>
      <trkpt lat="47.1313" lon="2.38145">
        <ele>144</ele>
        <time>2015-09-16T07:30:19Z</time>
      </trkpt>
      <trkpt lat="47.13122" lon="2.38154">
        <ele>144</ele>
        <time>2015-09-16T07:30:25Z</time>
      </trkpt>
      <trkpt lat="47.13113" lon="2.38163">
        <ele>144</ele>
        <time>2015-09-16T07:30:32Z</time>
      </trkpt>
      <trkpt lat="47.13106" lon="2.38172">
        <ele>144</ele>
        <time>2015-09-16T07:30:37Z</time>
      </trkpt>
      <trkpt lat="47.13098" lon="2.38181">
        <ele>144</ele>
        <time>2015-09-16T07:30:44Z</time>
      </trkpt>
      <trkpt lat="47.13089" lon="2.38186">
        <ele>144</ele>
        <time>2015-09-16T07:30:53Z</time>
      </trkpt>
      <trkpt lat="47.13082" lon="2.38195">
        <ele>144</ele>
        <time>2015-09-16T07:31:02Z</time>
      </trkpt>
      <trkpt lat="47.13074" lon="2.38205">
        <ele>144</ele>
        <time>2015-09-16T07:31:08Z</time>
      </trkpt>
      <trkpt lat="47.13068" lon="2.38214">
        <ele>144</ele>
        <time>2015-09-16T07:31:13Z</time>
      </trkpt>
      <trkpt lat="47.13061" lon="2.38223">
        <ele>144</ele>
        <time>2015-09-16T07:31:20Z</time>
      </trkpt>
      <trkpt lat="47.13055" lon="2.38234">
        <ele>144</ele>
        <time>2015-09-16T07:31:26Z</time>
      </trkpt>
      <trkpt lat="47.13048" lon="2.38244">
        <ele>144</ele>
        <time>2015-09-16T07:31:32Z</time>
      </trkpt>
      <trkpt lat="47.13041" lon="2.38253">
        <ele>144</ele>
        <time>2015-09-16T07:31:39Z</time>
      </trkpt>
      <trkpt lat="47.13034" lon="2.38262">
        <ele>144</ele>
        <time>2015-09-16T07:31:46Z</time>
      </trkpt>
      <trkpt lat="47.13027" lon="2.38273">
        <ele>144</ele>
        <time>2015-09-16T07:31:52Z</time>
      </trkpt>
      <trkpt lat="47.1302" lon="2.38284">
        <ele>144</ele>
        <time>2015-09-16T07:31:59Z</time>
      </trkpt>
      <trkpt lat="47.13013" lon="2.38293">
        <ele>144</ele>
        <time>2015-09-16T07:32:05Z</time>
      </trkpt>
      <trkpt lat="47.13006" lon="2.38303">
        <ele>144</ele>
        <time>2015-09-16T07:32:11Z</time>
      </trkpt>
      <trkpt lat="47.12999" lon="2.38313">
        <ele>144</ele>
        <time>2015-09-16T07:32:18Z</time>
      </trkpt>
      <trkpt lat="47.12992" lon="2.38324">
        <ele>144</ele>
        <time>2015-09-16T07:32:27Z</time>
      </trkpt>
      <trkpt lat="47.12986" lon="2.38335">
        <ele>144</ele>
        <time>2015-09-16T07:32:35Z</time>
      </trkpt>
      <trkpt lat="47.12978" lon="2.38343">
        <ele>144</ele>
        <time>2015-09-16T07:32:42Z</time>
      </trkpt>
      <trkpt lat="47.12971" lon="2.38351">
        <ele>144</ele>
        <time>2015-09-16T07:32:48Z</time>
      </trkpt>
      <trkpt lat="47.12963" lon="2.38361">
        <ele>144</ele>
        <time>2015-09-16T07:32:57Z</time>
      </trkpt>
      <trkpt lat="47.12956" lon="2.38371">
        <ele>144</ele>
        <time>2015-09-16T07:33:03Z</time>
      </trkpt>
      <trkpt lat="47.12948" lon="2.38381">
        <ele>144</ele>
        <time>2015-09-16T07:33:10Z</time>
      </trkpt>
      <trkpt lat="47.12938" lon="2.38386">
        <ele>144</ele>
        <time>2015-09-16T07:33:18Z</time>
      </trkpt>
      <trkpt lat="47.12929" lon="2.3839">
        <ele>144</ele>
        <time>2015-09-16T07:33:26Z</time>
      </trkpt>
      <trkpt lat="47.12921" lon="2.38399">
        <ele>144</ele>
        <time>2015-09-16T07:33:31Z</time>
      </trkpt>
      <trkpt lat="47.12912" lon="2.38402">
        <ele>144</ele>
        <time>2015-09-16T07:33:36Z</time>
      </trkpt>
      <trkpt lat="47.12903" lon="2.38408">
        <ele>144</ele>
        <time>2015-09-16T07:33:41Z</time>
      </trkpt>
      <trkpt lat="47.12894" lon="2.38409">
        <ele>144</ele>
        <time>2015-09-16T07:33:48Z</time>
      </trkpt>
      <trkpt lat="47.12885" lon="2.38413">
        <ele>144</ele>
        <time>2015-09-16T07:33:56Z</time>
      </trkpt>
      <trkpt lat="47.12875" lon="2.38417">
        <ele>144</ele>
        <time>2015-09-16T07:34:03Z</time>
      </trkpt>
      <trkpt lat="47.12867" lon="2.38421">
        <ele>144</ele>
        <time>2015-09-16T07:34:09Z</time>
      </trkpt>
      <trkpt lat="47.12857" lon="2.38426">
        <ele>144</ele>
        <time>2015-09-16T07:34:16Z</time>
      </trkpt>
      <trkpt lat="47.12848" lon="2.38432">
        <ele>144</ele>
        <time>2015-09-16T07:34:23Z</time>
      </trkpt>
      <trkpt lat="47.12838" lon="2.38436">
        <ele>144</ele>
        <time>2015-09-16T07:34:29Z</time>
      </trkpt>
      <trkpt lat="47.12829" lon="2.38438">
        <ele>144</ele>
        <time>2015-09-16T07:34:36Z</time>
      </trkpt>
      <trkpt lat="47.1282" lon="2.38434">
        <ele>144</ele>
        <time>2015-09-16T07:36:18Z</time>
      </trkpt>
      <trkpt lat="47.12812" lon="2.38428">
        <ele>144</ele>
        <time>2015-09-16T07:36:25Z</time>
      </trkpt>
      <trkpt lat="47.12805" lon="2.38419">
        <ele>144</ele>
        <time>2015-09-16T07:36:31Z</time>
      </trkpt>
      <trkpt lat="47.12798" lon="2.38409">
        <ele>144</ele>
        <time>2015-09-16T07:36:37Z</time>
      </trkpt>
      <trkpt lat="47.12791" lon="2.384">
        <ele>144</ele>
        <time>2015-09-16T07:36:44Z</time>
      </trkpt>
      <trkpt lat="47.12784" lon="2.3839">
        <ele>144</ele>
        <time>2015-09-16T07:36:50Z</time>
      </trkpt>
      <trkpt lat="47.12777" lon="2.38381">
        <ele>144</ele>
        <time>2015-09-16T07:36:56Z</time>
      </trkpt>
      <trkpt lat="47.12769" lon="2.38373">
        <ele>144</ele>
        <time>2015-09-16T07:37:04Z</time>
      </trkpt>
      <trkpt lat="47.12762" lon="2.38364">
        <ele>144</ele>
        <time>2015-09-16T07:37:11Z</time>
      </trkpt>
      <trkpt lat="47.12754" lon="2.38355">
        <ele>144</ele>
        <time>2015-09-16T07:37:17Z</time>
      </trkpt>
      <trkpt lat="47.12746" lon="2.38348">
        <ele>144</ele>
        <time>2015-09-16T07:37:23Z</time>
      </trkpt>
      <trkpt lat="47.12741" lon="2.38337">
        <ele>144</ele>
        <time>2015-09-16T07:37:32Z</time>
      </trkpt>
      <trkpt lat="47.12735" lon="2.38325">
        <ele>138</ele>
        <time>2015-09-16T07:37:40Z</time>
      </trkpt>
      <trkpt lat="47.12728" lon="2.38315">
        <ele>138</ele>
        <time>2015-09-16T07:37:46Z</time>
      </trkpt>
      <trkpt lat="47.12719" lon="2.3831">
        <ele>138</ele>
        <time>2015-09-16T07:37:53Z</time>
      </trkpt>
      <trkpt lat="47.12711" lon="2.38302">
        <ele>138</ele>
        <time>2015-09-16T07:38:00Z</time>
      </trkpt>
      <trkpt lat="47.1271" lon="2.38289">
        <ele>138</ele>
        <time>2015-09-16T07:38:07Z</time>
      </trkpt>
      <trkpt lat="47.12712" lon="2.38276">
        <ele>138</ele>
        <time>2015-09-16T07:38:16Z</time>
      </trkpt>
      <trkpt lat="47.12705" lon="2.38267">
        <ele>138</ele>
        <time>2015-09-16T07:38:31Z</time>
      </trkpt>
      <trkpt lat="47.12699" lon="2.38257">
        <ele>138</ele>
        <time>2015-09-16T07:38:39Z</time>
      </trkpt>
      <trkpt lat="47.12693" lon="2.38246">
        <ele>138</ele>
        <time>2015-09-16T07:38:48Z</time>
      </trkpt>
      <trkpt lat="47.12686" lon="2.38236">
        <ele>138</ele>
        <time>2015-09-16T07:38:55Z</time>
      </trkpt>
      <trkpt lat="47.12678" lon="2.38228">
        <ele>138</ele>
        <time>2015-09-16T07:39:02Z</time>
      </trkpt>
      <trkpt lat="47.1267" lon="2.3822">
        <ele>138</ele>
        <time>2015-09-16T07:39:09Z</time>
      </trkpt>
      <trkpt lat="47.12663" lon="2.38211">
        <ele>138</ele>
        <time>2015-09-16T07:39:16Z</time>
      </trkpt>
      <trkpt lat="47.12656" lon="2.38203">
        <ele>138</ele>
        <time>2015-09-16T07:39:23Z</time>
      </trkpt>
      <trkpt lat="47.12648" lon="2.38196">
        <ele>138</ele>
        <time>2015-09-16T07:39:30Z</time>
      </trkpt>
      <trkpt lat="47.12639" lon="2.38187">
        <ele>138</ele>
        <time>2015-09-16T07:39:38Z</time>
      </trkpt>
      <trkpt lat="47.12632" lon="2.38178">
        <ele>138</ele>
        <time>2015-09-16T07:39:45Z</time>
      </trkpt>
      <trkpt lat="47.12623" lon="2.38168">
        <ele>138</ele>
        <time>2015-09-16T07:39:53Z</time>
      </trkpt>
      <trkpt lat="47.12615" lon="2.38159">
        <ele>138</ele>
        <time>2015-09-16T07:39:59Z</time>
      </trkpt>
      <trkpt lat="47.12607" lon="2.38152">
        <ele>138</ele>
        <time>2015-09-16T07:40:06Z</time>
      </trkpt>
      <trkpt lat="47.12599" lon="2.38142">
        <ele>138</ele>
        <time>2015-09-16T07:40:15Z</time>
      </trkpt>
      <trkpt lat="47.12593" lon="2.38133">
        <ele>138</ele>
        <time>2015-09-16T07:40:21Z</time>
      </trkpt>
      <trkpt lat="47.12585" lon="2.38125">
        <ele>138</ele>
        <time>2015-09-16T07:40:27Z</time>
      </trkpt>
      <trkpt lat="47.12577" lon="2.38117">
        <ele>138</ele>
        <time>2015-09-16T07:40:34Z</time>
      </trkpt>
      <trkpt lat="47.12569" lon="2.3811">
        <ele>138</ele>
        <time>2015-09-16T07:40:41Z</time>
      </trkpt>
      <trkpt lat="47.12562" lon="2.381">
        <ele>138</ele>
        <time>2015-09-16T07:40:47Z</time>
      </trkpt>
      <trkpt lat="47.12553" lon="2.38092">
        <ele>138</ele>
        <time>2015-09-16T07:40:54Z</time>
      </trkpt>
      <trkpt lat="47.12546" lon="2.38083">
        <ele>138</ele>
        <time>2015-09-16T07:41:00Z</time>
      </trkpt>
      <trkpt lat="47.12539" lon="2.38073">
        <ele>138</ele>
        <time>2015-09-16T07:41:06Z</time>
      </trkpt>
      <trkpt lat="47.12536" lon="2.3806">
        <ele>138</ele>
        <time>2015-09-16T07:41:14Z</time>
      </trkpt>
      <trkpt lat="47.12536" lon="2.38045">
        <ele>138</ele>
        <time>2015-09-16T07:41:22Z</time>
      </trkpt>
      <trkpt lat="47.12537" lon="2.3803">
        <ele>132</ele>
        <time>2015-09-16T07:41:29Z</time>
      </trkpt>
      <trkpt lat="47.12542" lon="2.38018">
        <ele>132</ele>
        <time>2015-09-16T07:41:36Z</time>
      </trkpt>
      <trkpt lat="47.12544" lon="2.38004">
        <ele>132</ele>
        <time>2015-09-16T07:41:42Z</time>
      </trkpt>
      <trkpt lat="47.12544" lon="2.37991">
        <ele>132</ele>
        <time>2015-09-16T07:41:51Z</time>
      </trkpt>
      <trkpt lat="47.12554" lon="2.37984">
        <ele>132</ele>
        <time>2015-09-16T07:41:56Z</time>
      </trkpt>
      <trkpt lat="47.12563" lon="2.37977">
        <ele>132</ele>
        <time>2015-09-16T07:42:00Z</time>
      </trkpt>
      <trkpt lat="47.12571" lon="2.37968">
        <ele>140</ele>
        <time>2015-09-16T07:42:05Z</time>
      </trkpt>
      <trkpt lat="47.1258" lon="2.37963">
        <ele>140</ele>
        <time>2015-09-16T07:42:10Z</time>
      </trkpt>
      <trkpt lat="47.12589" lon="2.37956">
        <ele>140</ele>
        <time>2015-09-16T07:42:17Z</time>
      </trkpt>
      <trkpt lat="47.12598" lon="2.37948">
        <ele>140</ele>
        <time>2015-09-16T07:42:24Z</time>
      </trkpt>
      <trkpt lat="47.12605" lon="2.37941">
        <ele>140</ele>
        <time>2015-09-16T07:42:32Z</time>
      </trkpt>
      <trkpt lat="47.12615" lon="2.37936">
        <ele>140</ele>
        <time>2015-09-16T07:42:41Z</time>
      </trkpt>
      <trkpt lat="47.12623" lon="2.37931">
        <ele>135</ele>
        <time>2015-09-16T07:42:49Z</time>
      </trkpt>
      <trkpt lat="47.12632" lon="2.37925">
        <ele>135</ele>
        <time>2015-09-16T07:42:58Z</time>
      </trkpt>
      <trkpt lat="47.12642" lon="2.37922">
        <ele>135</ele>
        <time>2015-09-16T07:43:05Z</time>
      </trkpt>
      <trkpt lat="47.12651" lon="2.37919">
        <ele>135</ele>
        <time>2015-09-16T07:43:12Z</time>
      </trkpt>
      <trkpt lat="47.12659" lon="2.37913">
        <ele>135</ele>
        <time>2015-09-16T07:43:19Z</time>
      </trkpt>
      <trkpt lat="47.12668" lon="2.37906">
        <ele>135</ele>
        <time>2015-09-16T07:43:28Z</time>
      </trkpt>
      <trkpt lat="47.12675" lon="2.37897">
        <ele>135</ele>
        <time>2015-09-16T07:43:35Z</time>
      </trkpt>
      <trkpt lat="47.12683" lon="2.37889">
        <ele>135</ele>
        <time>2015-09-16T07:43:43Z</time>
      </trkpt>
      <trkpt lat="47.12689" lon="2.37878">
        <ele>130</ele>
        <time>2015-09-16T07:43:51Z</time>
      </trkpt>
      <trkpt lat="47.12694" lon="2.37865">
        <ele>130</ele>
        <time>2015-09-16T07:44:01Z</time>
      </trkpt>
      <trkpt lat="47.12701" lon="2.37857">
        <ele>130</ele>
        <time>2015-09-16T07:44:05Z</time>
      </trkpt>
      <trkpt lat="47.12709" lon="2.37849">
        <ele>130</ele>
        <time>2015-09-16T07:44:11Z</time>
      </trkpt>
      <trkpt lat="47.12718" lon="2.3784">
        <ele>130</ele>
        <time>2015-09-16T07:44:19Z</time>
      </trkpt>
      <trkpt lat="47.12726" lon="2.37831">
        <ele>135</ele>
        <time>2015-09-16T07:44:26Z</time>
      </trkpt>
      <trkpt lat="47.12735" lon="2.37824">
        <ele>135</ele>
        <time>2015-09-16T07:44:32Z</time>
      </trkpt>
      <trkpt lat="47.12742" lon="2.37813">
        <ele>135</ele>
        <time>2015-09-16T07:44:40Z</time>
      </trkpt>
      <trkpt lat="47.1275" lon="2.37804">
        <ele>135</ele>
        <time>2015-09-16T07:44:47Z</time>
      </trkpt>
      <trkpt lat="47.12756" lon="2.37793">
        <ele>135</ele>
        <time>2015-09-16T07:44:54Z</time>
      </trkpt>
      <trkpt lat="47.12757" lon="2.37778">
        <ele>135</ele>
        <time>2015-09-16T07:45:01Z</time>
      </trkpt>
      <trkpt lat="47.12758" lon="2.37763">
        <ele>135</ele>
        <time>2015-09-16T07:45:08Z</time>
      </trkpt>
      <trkpt lat="47.12758" lon="2.3775">
        <ele>135</ele>
        <time>2015-09-16T07:45:16Z</time>
      </trkpt>
      <trkpt lat="47.12757" lon="2.37736">
        <ele>135</ele>
        <time>2015-09-16T07:45:23Z</time>
      </trkpt>
      <trkpt lat="47.12759" lon="2.37722">
        <ele>135</ele>
        <time>2015-09-16T07:45:29Z</time>
      </trkpt>
      <trkpt lat="47.12767" lon="2.37714">
        <ele>135</ele>
        <time>2015-09-16T07:45:36Z</time>
      </trkpt>
      <trkpt lat="47.12772" lon="2.37703">
        <ele>143</ele>
        <time>2015-09-16T07:45:43Z</time>
      </trkpt>
      <trkpt lat="47.12778" lon="2.37692">
        <ele>143</ele>
        <time>2015-09-16T07:45:50Z</time>
      </trkpt>
      <trkpt lat="47.12786" lon="2.37684">
        <ele>143</ele>
        <time>2015-09-16T07:45:59Z</time>
      </trkpt>
      <trkpt lat="47.12791" lon="2.37673">
        <ele>131</ele>
        <time>2015-09-16T07:46:21Z</time>
      </trkpt>
      <trkpt lat="47.12785" lon="2.37682">
        <ele>146</ele>
        <time>2015-09-16T07:47:00Z</time>
      </trkpt>
      <trkpt lat="47.12781" lon="2.37694">
        <ele>146</ele>
        <time>2015-09-16T07:47:58Z</time>
      </trkpt>
      <trkpt lat="47.12786" lon="2.37682">
        <ele>138</ele>
        <time>2015-09-16T07:48:17Z</time>
      </trkpt>
      <trkpt lat="47.1279" lon="2.37668">
        <ele>138</ele>
        <time>2015-09-16T07:48:23Z</time>
      </trkpt>
      <trkpt lat="47.12792" lon="2.37656">
        <ele>138</ele>
        <time>2015-09-16T07:48:28Z</time>
      </trkpt>
      <trkpt lat="47.12795" lon="2.37641">
        <ele>132</ele>
        <time>2015-09-16T07:48:34Z</time>
      </trkpt>
      <trkpt lat="47.12796" lon="2.37628">
        <ele>132</ele>
        <time>2015-09-16T07:48:39Z</time>
      </trkpt>
      <trkpt lat="47.128" lon="2.37614">
        <ele>132</ele>
        <time>2015-09-16T07:48:47Z</time>
      </trkpt>
      <trkpt lat="47.12805" lon="2.37601">
        <ele>132</ele>
        <time>2015-09-16T07:48:57Z</time>
      </trkpt>
      <trkpt lat="47.12807" lon="2.37588">
        <ele>132</ele>
        <time>2015-09-16T07:49:04Z</time>
      </trkpt>
      <trkpt lat="47.12811" lon="2.37575">
        <ele>132</ele>
        <time>2015-09-16T07:49:11Z</time>
      </trkpt>
      <trkpt lat="47.12813" lon="2.37561">
        <ele>124</ele>
        <time>2015-09-16T07:49:18Z</time>
      </trkpt>
      <trkpt lat="47.12812" lon="2.37547">
        <ele>124</ele>
        <time>2015-09-16T07:49:26Z</time>
      </trkpt>
      <trkpt lat="47.1281" lon="2.37533">
        <ele>124</ele>
        <time>2015-09-16T07:49:33Z</time>
      </trkpt>
      <trkpt lat="47.12802" lon="2.37525">
        <ele>131</ele>
        <time>2015-09-16T07:49:55Z</time>
      </trkpt>
      <trkpt lat="47.12793" lon="2.37522">
        <ele>131</ele>
        <time>2015-09-16T07:50:04Z</time>
      </trkpt>
      <trkpt lat="47.1278" lon="2.37521">
        <ele>131</ele>
        <time>2015-09-16T07:50:14Z</time>
      </trkpt>
      <trkpt lat="47.1277" lon="2.37519">
        <ele>141</ele>
        <time>2015-09-16T07:50:19Z</time>
      </trkpt>
      <trkpt lat="47.12764" lon="2.37509">
        <ele>148</ele>
        <time>2015-09-16T07:50:32Z</time>
      </trkpt>
      <trkpt lat="47.12772" lon="2.37504">
        <ele>140</ele>
        <time>2015-09-16T07:50:56Z</time>
      </trkpt>
      <trkpt lat="47.12771" lon="2.37489">
        <ele>149</ele>
        <time>2015-09-16T07:51:16Z</time>
      </trkpt>
      <trkpt lat="47.12773" lon="2.37474">
        <ele>149</ele>
        <time>2015-09-16T07:51:25Z</time>
      </trkpt>
      <trkpt lat="47.12776" lon="2.37461">
        <ele>143</ele>
        <time>2015-09-16T07:51:31Z</time>
      </trkpt>
      <trkpt lat="47.12777" lon="2.37447">
        <ele>143</ele>
        <time>2015-09-16T07:51:38Z</time>
      </trkpt>
      <trkpt lat="47.12778" lon="2.37434">
        <ele>143</ele>
        <time>2015-09-16T07:51:47Z</time>
      </trkpt>
      <trkpt lat="47.1278" lon="2.37419">
        <ele>149</ele>
        <time>2015-09-16T07:51:54Z</time>
      </trkpt>
      <trkpt lat="47.12779" lon="2.37406">
        <ele>149</ele>
        <time>2015-09-16T07:52:01Z</time>
      </trkpt>
      <trkpt lat="47.12783" lon="2.37393">
        <ele>149</ele>
        <time>2015-09-16T07:52:06Z</time>
      </trkpt>
      <trkpt lat="47.12787" lon="2.37379">
        <ele>149</ele>
        <time>2015-09-16T07:52:12Z</time>
      </trkpt>
      <trkpt lat="47.12789" lon="2.37365">
        <ele>149</ele>
        <time>2015-09-16T07:52:19Z</time>
      </trkpt>
      <trkpt lat="47.12792" lon="2.37353">
        <ele>149</ele>
        <time>2015-09-16T07:52:24Z</time>
      </trkpt>
      <trkpt lat="47.12798" lon="2.37343">
        <ele>149</ele>
        <time>2015-09-16T07:52:30Z</time>
      </trkpt>
      <trkpt lat="47.12804" lon="2.37333">
        <ele>143</ele>
        <time>2015-09-16T07:52:36Z</time>
      </trkpt>
      <trkpt lat="47.12807" lon="2.37319">
        <ele>143</ele>
        <time>2015-09-16T07:52:42Z</time>
      </trkpt>
      <trkpt lat="47.12811" lon="2.37307">
        <ele>137</ele>
        <time>2015-09-16T07:52:52Z</time>
      </trkpt>
      <trkpt lat="47.12821" lon="2.37301">
        <ele>143</ele>
        <time>2015-09-16T07:53:08Z</time>
      </trkpt>
      <trkpt lat="47.12827" lon="2.3731">
        <ele>136</ele>
        <time>2015-09-16T07:53:24Z</time>
      </trkpt>
      <trkpt lat="47.12819" lon="2.37305">
        <ele>136</ele>
        <time>2015-09-16T07:53:49Z</time>
      </trkpt>
      <trkpt lat="47.12811" lon="2.37296">
        <ele>141</ele>
        <time>2015-09-16T07:54:01Z</time>
      </trkpt>
      <trkpt lat="47.1281" lon="2.37311">
        <ele>141</ele>
        <time>2015-09-16T07:54:26Z</time>
      </trkpt>
      <trkpt lat="47.12807" lon="2.37323">
        <ele>141</ele>
        <time>2015-09-16T07:54:37Z</time>
      </trkpt>
      <trkpt lat="47.12799" lon="2.37332">
        <ele>141</ele>
        <time>2015-09-16T07:54:47Z</time>
      </trkpt>
      <trkpt lat="47.12793" lon="2.37346">
        <ele>141</ele>
        <time>2015-09-16T07:54:53Z</time>
      </trkpt>
      <trkpt lat="47.1279" lon="2.37358">
        <ele>141</ele>
        <time>2015-09-16T07:54:59Z</time>
      </trkpt>
      <trkpt lat="47.12788" lon="2.37374">
        <ele>136</ele>
        <time>2015-09-16T07:55:19Z</time>
      </trkpt>
      <trkpt lat="47.12783" lon="2.37386">
        <ele>136</ele>
        <time>2015-09-16T07:55:27Z</time>
      </trkpt>
      <trkpt lat="47.12787" lon="2.37406">
        <ele>142</ele>
        <time>2015-09-16T07:55:38Z</time>
      </trkpt>
      <trkpt lat="47.12783" lon="2.37423">
        <ele>148</ele>
        <time>2015-09-16T07:55:44Z</time>
      </trkpt>
      <trkpt lat="47.1278" lon="2.37436">
        <ele>154</ele>
        <time>2015-09-16T07:55:55Z</time>
      </trkpt>
      <trkpt lat="47.12773" lon="2.37445">
        <ele>154</ele>
        <time>2015-09-16T07:56:00Z</time>
      </trkpt>
      <trkpt lat="47.12771" lon="2.37461">
        <ele>154</ele>
        <time>2015-09-16T07:56:07Z</time>
      </trkpt>
      <trkpt lat="47.12773" lon="2.37473">
        <ele>141</ele>
        <time>2015-09-16T07:56:14Z</time>
      </trkpt>
      <trkpt lat="47.12772" lon="2.37488">
        <ele>141</ele>
        <time>2015-09-16T07:56:21Z</time>
      </trkpt>
      <trkpt lat="47.12771" lon="2.37501">
        <ele>133</ele>
        <time>2015-09-16T07:56:29Z</time>
      </trkpt>
      <trkpt lat="47.12772" lon="2.37516">
        <ele>133</ele>
        <time>2015-09-16T07:56:40Z</time>
      </trkpt>
      <trkpt lat="47.1278" lon="2.37522">
        <ele>152</ele>
        <time>2015-09-16T07:57:08Z</time>
      </trkpt>
      <trkpt lat="47.12771" lon="2.37517">
        <ele>152</ele>
        <time>2015-09-16T07:57:34Z</time>
      </trkpt>
      <trkpt lat="47.12762" lon="2.37512">
        <ele>152</ele>
        <time>2015-09-16T07:58:18Z</time>
      </trkpt>
      <trkpt lat="47.12754" lon="2.37518">
        <ele>140</ele>
        <time>2015-09-16T07:58:28Z</time>
      </trkpt>
      <trkpt lat="47.12745" lon="2.37524">
        <ele>140</ele>
        <time>2015-09-16T07:58:36Z</time>
      </trkpt>
      <trkpt lat="47.12737" lon="2.37529">
        <ele>140</ele>
        <time>2015-09-16T07:58:46Z</time>
      </trkpt>
      <trkpt lat="47.12728" lon="2.37534">
        <ele>140</ele>
        <time>2015-09-16T07:58:52Z</time>
      </trkpt>
      <trkpt lat="47.12719" lon="2.3754">
        <ele>140</ele>
        <time>2015-09-16T07:58:59Z</time>
      </trkpt>
      <trkpt lat="47.1271" lon="2.37545">
        <ele>140</ele>
        <time>2015-09-16T07:59:06Z</time>
      </trkpt>
      <trkpt lat="47.12702" lon="2.37552">
        <ele>140</ele>
        <time>2015-09-16T07:59:12Z</time>
      </trkpt>
      <trkpt lat="47.12694" lon="2.37558">
        <ele>140</ele>
        <time>2015-09-16T07:59:18Z</time>
      </trkpt>
      <trkpt lat="47.12685" lon="2.37561">
        <ele>140</ele>
        <time>2015-09-16T07:59:25Z</time>
      </trkpt>
      <trkpt lat="47.12676" lon="2.37567">
        <ele>140</ele>
        <time>2015-09-16T07:59:31Z</time>
      </trkpt>
      <trkpt lat="47.12668" lon="2.37574">
        <ele>140</ele>
        <time>2015-09-16T07:59:37Z</time>
      </trkpt>
      <trkpt lat="47.1266" lon="2.37581">
        <ele>140</ele>
        <time>2015-09-16T07:59:43Z</time>
      </trkpt>
      <trkpt lat="47.12651" lon="2.37586">
        <ele>140</ele>
        <time>2015-09-16T07:59:49Z</time>
      </trkpt>
      <trkpt lat="47.12642" lon="2.37591">
        <ele>146</ele>
        <time>2015-09-16T07:59:55Z</time>
      </trkpt>
      <trkpt lat="47.12632" lon="2.37594">
        <ele>146</ele>
        <time>2015-09-16T08:00:03Z</time>
      </trkpt>
      <trkpt lat="47.12623" lon="2.37601">
        <ele>146</ele>
        <time>2015-09-16T08:00:10Z</time>
      </trkpt>
      <trkpt lat="47.12614" lon="2.37606">
        <ele>146</ele>
        <time>2015-09-16T08:00:18Z</time>
      </trkpt>
      <trkpt lat="47.12616" lon="2.37622">
        <ele>146</ele>
        <time>2015-09-16T08:00:25Z</time>
      </trkpt>
      <trkpt lat="47.12617" lon="2.37635">
        <ele>146</ele>
        <time>2015-09-16T08:00:34Z</time>
      </trkpt>
      <trkpt lat="47.12619" lon="2.3765">
        <ele>146</ele>
        <time>2015-09-16T08:00:44Z</time>
      </trkpt>
      <trkpt lat="47.12621" lon="2.37666">
        <ele>139</ele>
        <time>2015-09-16T08:00:51Z</time>
      </trkpt>
      <trkpt lat="47.12623" lon="2.37683">
        <ele>139</ele>
        <time>2015-09-16T08:00:57Z</time>
      </trkpt>
      <trkpt lat="47.12624" lon="2.37696">
        <ele>139</ele>
        <time>2015-09-16T08:01:02Z</time>
      </trkpt>
      <trkpt lat="47.12626" lon="2.37712">
        <ele>139</ele>
        <time>2015-09-16T08:01:09Z</time>
      </trkpt>
      <trkpt lat="47.12628" lon="2.37728">
        <ele>139</ele>
        <time>2015-09-16T08:01:14Z</time>
      </trkpt>
      <trkpt lat="47.12629" lon="2.37742">
        <ele>139</ele>
        <time>2015-09-16T08:01:19Z</time>
      </trkpt>
      <trkpt lat="47.12629" lon="2.37756">
        <ele>139</ele>
        <time>2015-09-16T08:01:26Z</time>
      </trkpt>
      <trkpt lat="47.1263" lon="2.3777">
        <ele>139</ele>
        <time>2015-09-16T08:01:31Z</time>
      </trkpt>
      <trkpt lat="47.12633" lon="2.37783">
        <ele>139</ele>
        <time>2015-09-16T08:01:39Z</time>
      </trkpt>
      <trkpt lat="47.12636" lon="2.37796">
        <ele>139</ele>
        <time>2015-09-16T08:01:45Z</time>
      </trkpt>
      <trkpt lat="47.12636" lon="2.3781">
        <ele>139</ele>
        <time>2015-09-16T08:01:50Z</time>
      </trkpt>
      <trkpt lat="47.12636" lon="2.37825">
        <ele>139</ele>
        <time>2015-09-16T08:01:55Z</time>
      </trkpt>
      <trkpt lat="47.12637" lon="2.37838">
        <ele>139</ele>
        <time>2015-09-16T08:02:01Z</time>
      </trkpt>
      <trkpt lat="47.12632" lon="2.3785">
        <ele>139</ele>
        <time>2015-09-16T08:02:07Z</time>
      </trkpt>
      <trkpt lat="47.12624" lon="2.37855">
        <ele>145</ele>
        <time>2015-09-16T08:02:13Z</time>
      </trkpt>
      <trkpt lat="47.12616" lon="2.37861">
        <ele>145</ele>
        <time>2015-09-16T08:02:20Z</time>
      </trkpt>
      <trkpt lat="47.12607" lon="2.37863">
        <ele>145</ele>
        <time>2015-09-16T08:02:25Z</time>
      </trkpt>
      <trkpt lat="47.12596" lon="2.37869">
        <ele>153</ele>
        <time>2015-09-16T08:02:31Z</time>
      </trkpt>
      <trkpt lat="47.12587" lon="2.37876">
        <ele>153</ele>
        <time>2015-09-16T08:02:36Z</time>
      </trkpt>
      <trkpt lat="47.12578" lon="2.37877">
        <ele>153</ele>
        <time>2015-09-16T08:02:44Z</time>
      </trkpt>
      <trkpt lat="47.1257" lon="2.37886">
        <ele>146</ele>
        <time>2015-09-16T08:02:53Z</time>
      </trkpt>
      <trkpt lat="47.12561" lon="2.37893">
        <ele>146</ele>
        <time>2015-09-16T08:03:02Z</time>
      </trkpt>
      <trkpt lat="47.12551" lon="2.37896">
        <ele>146</ele>
        <time>2015-09-16T08:03:08Z</time>
      </trkpt>
      <trkpt lat="47.12542" lon="2.37901">
        <ele>140</ele>
        <time>2015-09-16T08:03:15Z</time>
      </trkpt>
      <trkpt lat="47.1253" lon="2.37905">
        <ele>140</ele>
        <time>2015-09-16T08:03:22Z</time>
      </trkpt>
      <trkpt lat="47.1252" lon="2.37912">
        <ele>140</ele>
        <time>2015-09-16T08:03:29Z</time>
      </trkpt>
      <trkpt lat="47.1251" lon="2.3791">
        <ele>140</ele>
        <time>2015-09-16T08:03:36Z</time>
      </trkpt>
      <trkpt lat="47.125" lon="2.37911">
        <ele>132</ele>
        <time>2015-09-16T08:03:44Z</time>
      </trkpt>
      <trkpt lat="47.12493" lon="2.37902">
        <ele>117</ele>
        <time>2015-09-16T08:04:08Z</time>
      </trkpt>
      <trkpt lat="47.12483" lon="2.37902">
        <ele>134</ele>
        <time>2015-09-16T08:04:35Z</time>
      </trkpt>
      <trkpt lat="47.12477" lon="2.37913">
        <ele>161</ele>
        <time>2015-09-16T08:05:56Z</time>
      </trkpt>
      <trkpt lat="47.12479" lon="2.37899">
        <ele>161</ele>
        <time>2015-09-16T08:06:15Z</time>
      </trkpt>
      <trkpt lat="47.12484" lon="2.37883">
        <ele>136</ele>
        <time>2015-09-16T08:06:20Z</time>
      </trkpt>
      <trkpt lat="47.12485" lon="2.37869">
        <ele>136</ele>
        <time>2015-09-16T08:06:34Z</time>
      </trkpt>
      <trkpt lat="47.12482" lon="2.37856">
        <ele>136</ele>
        <time>2015-09-16T08:06:40Z</time>
      </trkpt>
      <trkpt lat="47.1248" lon="2.37842">
        <ele>136</ele>
        <time>2015-09-16T08:06:47Z</time>
      </trkpt>
      <trkpt lat="47.12477" lon="2.3783">
        <ele>142</ele>
        <time>2015-09-16T08:06:57Z</time>
      </trkpt>
      <trkpt lat="47.12474" lon="2.37817">
        <ele>142</ele>
        <time>2015-09-16T08:07:04Z</time>
      </trkpt>
      <trkpt lat="47.12469" lon="2.37804">
        <ele>142</ele>
        <time>2015-09-16T08:07:12Z</time>
      </trkpt>
      <trkpt lat="47.12464" lon="2.37792">
        <ele>142</ele>
        <time>2015-09-16T08:07:19Z</time>
      </trkpt>
      <trkpt lat="47.12461" lon="2.3778">
        <ele>142</ele>
        <time>2015-09-16T08:07:26Z</time>
      </trkpt>
      <trkpt lat="47.12455" lon="2.37768">
        <ele>142</ele>
        <time>2015-09-16T08:07:32Z</time>
      </trkpt>
      <trkpt lat="47.1245" lon="2.37757">
        <ele>142</ele>
        <time>2015-09-16T08:07:40Z</time>
      </trkpt>
      <trkpt lat="47.12443" lon="2.37746">
        <ele>142</ele>
        <time>2015-09-16T08:07:47Z</time>
      </trkpt>
      <trkpt lat="47.12435" lon="2.37736">
        <ele>142</ele>
        <time>2015-09-16T08:07:55Z</time>
      </trkpt>
      <trkpt lat="47.12427" lon="2.37727">
        <ele>142</ele>
        <time>2015-09-16T08:08:00Z</time>
      </trkpt>
      <trkpt lat="47.12417" lon="2.37716">
        <ele>142</ele>
        <time>2015-09-16T08:08:06Z</time>
      </trkpt>
      <trkpt lat="47.124" lon="2.37709">
        <ele>142</ele>
        <time>2015-09-16T08:08:12Z</time>
      </trkpt>
      <trkpt lat="47.1239" lon="2.37705">
        <ele>148</ele>
        <time>2015-09-16T08:08:14Z</time>
      </trkpt>
      <trkpt lat="47.12402" lon="2.37704">
        <ele>148</ele>
        <time>2015-09-16T08:08:15Z</time>
      </trkpt>
      <trkpt lat="47.12413" lon="2.37703">
        <ele>148</ele>
        <time>2015-09-16T08:08:17Z</time>
      </trkpt>
      <trkpt lat="47.12407" lon="2.37692">
        <ele>148</ele>
        <time>2015-09-16T08:08:25Z</time>
      </trkpt>
      <trkpt lat="47.12402" lon="2.37681">
        <ele>137</ele>
        <time>2015-09-16T08:08:32Z</time>
      </trkpt>
      <trkpt lat="47.12394" lon="2.37672">
        <ele>137</ele>
        <time>2015-09-16T08:08:38Z</time>
      </trkpt>
      <trkpt lat="47.12388" lon="2.37661">
        <ele>137</ele>
        <time>2015-09-16T08:08:45Z</time>
      </trkpt>
      <trkpt lat="47.12384" lon="2.37647">
        <ele>137</ele>
        <time>2015-09-16T08:08:51Z</time>
      </trkpt>
      <trkpt lat="47.12378" lon="2.37636">
        <ele>137</ele>
        <time>2015-09-16T08:08:59Z</time>
      </trkpt>
      <trkpt lat="47.12371" lon="2.37622">
        <ele>137</ele>
        <time>2015-09-16T08:09:08Z</time>
      </trkpt>
      <trkpt lat="47.12365" lon="2.37608">
        <ele>137</ele>
        <time>2015-09-16T08:09:14Z</time>
      </trkpt>
      <trkpt lat="47.1236" lon="2.37597">
        <ele>142</ele>
        <time>2015-09-16T08:09:21Z</time>
      </trkpt>
      <trkpt lat="47.12357" lon="2.37585">
        <ele>134</ele>
        <time>2015-09-16T08:09:31Z</time>
      </trkpt>
      <trkpt lat="47.12349" lon="2.37577">
        <ele>134</ele>
        <time>2015-09-16T08:09:35Z</time>
      </trkpt>
      <trkpt lat="47.12344" lon="2.37566">
        <ele>142</ele>
        <time>2015-09-16T08:09:44Z</time>
      </trkpt>
      <trkpt lat="47.12338" lon="2.37555">
        <ele>148</ele>
        <time>2015-09-16T08:09:50Z</time>
      </trkpt>
      <trkpt lat="47.12334" lon="2.37542">
        <ele>148</ele>
        <time>2015-09-16T08:09:56Z</time>
      </trkpt>
      <trkpt lat="47.12329" lon="2.37531">
        <ele>148</ele>
        <time>2015-09-16T08:10:02Z</time>
      </trkpt>
      <trkpt lat="47.1232" lon="2.37528">
        <ele>148</ele>
        <time>2015-09-16T08:10:08Z</time>
      </trkpt>
      <trkpt lat="47.12314" lon="2.37516">
        <ele>148</ele>
        <time>2015-09-16T08:10:16Z</time>
      </trkpt>
      <trkpt lat="47.12304" lon="2.37515">
        <ele>148</ele>
        <time>2015-09-16T08:10:24Z</time>
      </trkpt>
      <trkpt lat="47.12296" lon="2.37521">
        <ele>148</ele>
        <time>2015-09-16T08:10:32Z</time>
      </trkpt>
      <trkpt lat="47.12289" lon="2.3753">
        <ele>148</ele>
        <time>2015-09-16T08:10:42Z</time>
      </trkpt>
      <trkpt lat="47.12284" lon="2.37541">
        <ele>148</ele>
        <time>2015-09-16T08:10:51Z</time>
      </trkpt>
      <trkpt lat="47.12276" lon="2.37551">
        <ele>148</ele>
        <time>2015-09-16T08:10:57Z</time>
      </trkpt>
      <trkpt lat="47.12271" lon="2.37563">
        <ele>148</ele>
        <time>2015-09-16T08:11:05Z</time>
      </trkpt>
      <trkpt lat="47.12265" lon="2.37573">
        <ele>148</ele>
        <time>2015-09-16T08:11:12Z</time>
      </trkpt>
      <trkpt lat="47.12258" lon="2.37583">
        <ele>148</ele>
        <time>2015-09-16T08:11:20Z</time>
      </trkpt>
      <trkpt lat="47.12254" lon="2.37595">
        <ele>142</ele>
        <time>2015-09-16T08:11:26Z</time>
      </trkpt>
      <trkpt lat="47.12247" lon="2.37605">
        <ele>142</ele>
        <time>2015-09-16T08:11:34Z</time>
      </trkpt>
      <trkpt lat="47.12241" lon="2.37617">
        <ele>142</ele>
        <time>2015-09-16T08:11:41Z</time>
      </trkpt>
      <trkpt lat="47.12236" lon="2.3763">
        <ele>142</ele>
        <time>2015-09-16T08:11:48Z</time>
      </trkpt>
      <trkpt lat="47.12231" lon="2.37642">
        <ele>142</ele>
        <time>2015-09-16T08:11:54Z</time>
      </trkpt>
      <trkpt lat="47.12225" lon="2.37652">
        <ele>142</ele>
        <time>2015-09-16T08:12:01Z</time>
      </trkpt>
      <trkpt lat="47.12219" lon="2.37664">
        <ele>142</ele>
        <time>2015-09-16T08:12:08Z</time>
      </trkpt>
      <trkpt lat="47.12213" lon="2.37675">
        <ele>142</ele>
        <time>2015-09-16T08:12:15Z</time>
      </trkpt>
      <trkpt lat="47.12208" lon="2.37687">
        <ele>142</ele>
        <time>2015-09-16T08:12:22Z</time>
      </trkpt>
      <trkpt lat="47.12204" lon="2.377">
        <ele>142</ele>
        <time>2015-09-16T08:12:28Z</time>
      </trkpt>
      <trkpt lat="47.12198" lon="2.37711">
        <ele>142</ele>
        <time>2015-09-16T08:12:36Z</time>
      </trkpt>
      <trkpt lat="47.12192" lon="2.37722">
        <ele>142</ele>
        <time>2015-09-16T08:12:43Z</time>
      </trkpt>
      <trkpt lat="47.12185" lon="2.3773">
        <ele>142</ele>
        <time>2015-09-16T08:12:51Z</time>
      </trkpt>
      <trkpt lat="47.12178" lon="2.37741">
        <ele>142</ele>
        <time>2015-09-16T08:12:57Z</time>
      </trkpt>
      <trkpt lat="47.1217" lon="2.37749">
        <ele>142</ele>
        <time>2015-09-16T08:13:02Z</time>
      </trkpt>
      <trkpt lat="47.1216" lon="2.37754">
        <ele>142</ele>
        <time>2015-09-16T08:13:07Z</time>
      </trkpt>
      <trkpt lat="47.12157" lon="2.37766">
        <ele>142</ele>
        <time>2015-09-16T08:13:14Z</time>
      </trkpt>
      <trkpt lat="47.12151" lon="2.37778">
        <ele>142</ele>
        <time>2015-09-16T08:13:21Z</time>
      </trkpt>
      <trkpt lat="47.12144" lon="2.3779">
        <ele>151</ele>
        <time>2015-09-16T08:13:28Z</time>
      </trkpt>
      <trkpt lat="47.12138" lon="2.37802">
        <ele>151</ele>
        <time>2015-09-16T08:13:36Z</time>
      </trkpt>
      <trkpt lat="47.12133" lon="2.37815">
        <ele>151</ele>
        <time>2015-09-16T08:13:44Z</time>
      </trkpt>
      <trkpt lat="47.12124" lon="2.37809">
        <ele>151</ele>
        <time>2015-09-16T08:13:57Z</time>
      </trkpt>
      <trkpt lat="47.12115" lon="2.37812">
        <ele>151</ele>
        <time>2015-09-16T08:14:06Z</time>
      </trkpt>
      <trkpt lat="47.12106" lon="2.37807">
        <ele>151</ele>
        <time>2015-09-16T08:14:21Z</time>
      </trkpt>
      <trkpt lat="47.12115" lon="2.37811">
        <ele>151</ele>
        <time>2015-09-16T08:16:26Z</time>
      </trkpt>
      <trkpt lat="47.12108" lon="2.37802">
        <ele>138</ele>
        <time>2015-09-16T08:17:02Z</time>
      </trkpt>
      <trkpt lat="47.12105" lon="2.37789">
        <ele>148</ele>
        <time>2015-09-16T08:17:31Z</time>
      </trkpt>
      <trkpt lat="47.12098" lon="2.37778">
        <ele>148</ele>
        <time>2015-09-16T08:17:41Z</time>
      </trkpt>
      <trkpt lat="47.12092" lon="2.37765">
        <ele>148</ele>
        <time>2015-09-16T08:17:50Z</time>
      </trkpt>
      <trkpt lat="47.12086" lon="2.37754">
        <ele>140</ele>
        <time>2015-09-16T08:17:57Z</time>
      </trkpt>
      <trkpt lat="47.12082" lon="2.37743">
        <ele>140</ele>
        <time>2015-09-16T08:18:03Z</time>
      </trkpt>
      <trkpt lat="47.12075" lon="2.37731">
        <ele>140</ele>
        <time>2015-09-16T08:18:12Z</time>
      </trkpt>
      <trkpt lat="47.12071" lon="2.37719">
        <ele>140</ele>
        <time>2015-09-16T08:18:19Z</time>
      </trkpt>
      <trkpt lat="47.12065" lon="2.37708">
        <ele>140</ele>
        <time>2015-09-16T08:18:29Z</time>
      </trkpt>
      <trkpt lat="47.1206" lon="2.37696">
        <ele>140</ele>
        <time>2015-09-16T08:18:34Z</time>
      </trkpt>
      <trkpt lat="47.12054" lon="2.37686">
        <ele>140</ele>
        <time>2015-09-16T08:18:42Z</time>
      </trkpt>
      <trkpt lat="47.12048" lon="2.37675">
        <ele>140</ele>
        <time>2015-09-16T08:18:50Z</time>
      </trkpt>
      <trkpt lat="47.12041" lon="2.37666">
        <ele>140</ele>
        <time>2015-09-16T08:19:00Z</time>
      </trkpt>
      <trkpt lat="47.12034" lon="2.37654">
        <ele>146</ele>
        <time>2015-09-16T08:19:08Z</time>
      </trkpt>
      <trkpt lat="47.12029" lon="2.37642">
        <ele>146</ele>
        <time>2015-09-16T08:19:16Z</time>
      </trkpt>
      <trkpt lat="47.12025" lon="2.3763">
        <ele>146</ele>
        <time>2015-09-16T08:19:25Z</time>
      </trkpt>
      <trkpt lat="47.12021" lon="2.37616">
        <ele>146</ele>
        <time>2015-09-16T08:19:33Z</time>
      </trkpt>
      <trkpt lat="47.12015" lon="2.37604">
        <ele>146</ele>
        <time>2015-09-16T08:19:41Z</time>
      </trkpt>
      <trkpt lat="47.12009" lon="2.37594">
        <ele>146</ele>
        <time>2015-09-16T08:19:49Z</time>
      </trkpt>
      <trkpt lat="47.12004" lon="2.37582">
        <ele>138</ele>
        <time>2015-09-16T08:20:02Z</time>
      </trkpt>
      <trkpt lat="47.11998" lon="2.3757">
        <ele>131</ele>
        <time>2015-09-16T08:20:08Z</time>
      </trkpt>
      <trkpt lat="47.11994" lon="2.37559">
        <ele>131</ele>
        <time>2015-09-16T08:20:17Z</time>
      </trkpt>
      <trkpt lat="47.11989" lon="2.37547">
        <ele>131</ele>
        <time>2015-09-16T08:20:24Z</time>
      </trkpt>
      <trkpt lat="47.11982" lon="2.37536">
        <ele>142</ele>
        <time>2015-09-16T08:20:35Z</time>
      </trkpt>
      <trkpt lat="47.11976" lon="2.37525">
        <ele>142</ele>
        <time>2015-09-16T08:20:43Z</time>
      </trkpt>
      <trkpt lat="47.11968" lon="2.37516">
        <ele>142</ele>
        <time>2015-09-16T08:20:51Z</time>
      </trkpt>
    </trkseg>
  </trk>
</gpx>